sensor_id;sensor_type;location;lat;lon;timestamp;temperature;humidity
23497;DHT22;11925;48.122;11.560;2023-11-19T01:50:21;11.40;99.90
23497;DHT22;11925;48.122;11.560;2023-11-19T01:52:52;11.30;99.90
23497;DHT22;11925;48.122;11.560;2023-11-19T02:50:11;11.60;99.90
23497;DHT22;11925;48.122;11.560;2023-11-19T02:52:41;11.60;99.90
23497;DHT22;11925;48.122;11.560;2023-11-19T02:55:10;11.50;99.90
23497;DHT22;11925;48.122;11.560;2023-11-19T02:57:40;11.50;99.90
23497;DHT22;11925;48.122;11.560;2023-11-19T03:00:14;11.40;99.90
23497;DHT22;11925;48.122;11.560;2023-11-19T03:02:44;11.30;99.90
23497;DHT22;11925;48.122;11.560;2023-11-19T03:05:15;11.40;99.90
23497;DHT22;11925;48.122;11.560;2023-11-19T03:07:44;11.40;99.90
23497;DHT22;11925;48.122;11.560;2023-11-19T03:10:13;11.40;99.90
23497;DHT22;11925;48.122;11.560;2023-11-19T03:12:42;11.40;99.90
23497;DHT22;11925;48.122;11.560;2023-11-19T03:15:12;11.40;99.90
23497;DHT22;11925;48.122;11.560;2023-11-19T03:17:42;11.40;99.90
23497;DHT22;11925;48.122;11.560;2023-11-19T03:20:12;11.40;99.90
23497;DHT22;11925;48.122;11.560;2023-11-19T03:22:42;11.40;99.90
23497;DHT22;11925;48.122;11.560;2023-11-19T03:25:11;11.40;99.90
23497;DHT22;11925;48.122;11.560;2023-11-19T03:27:40;11.50;99.90
23497;DHT22;11925;48.122;11.560;2023-11-19T03:30:10;11.50;99.90
23497;DHT22;11925;48.122;11.560;2023-11-19T03:32:39;11.50;99.90
23497;DHT22;11925;48.122;11.560;2023-11-19T03:35:08;11.50;99.90
23497;DHT22;11925;48.122;11.560;2023-11-19T03:37:39;11.50;99.90
23497;DHT22;11925;48.122;11.560;2023-11-19T03:40:08;11.50;99.90
23497;DHT22;11925;48.122;11.560;2023-11-19T03:42:37;11.50;99.90
23497;DHT22;11925;48.122;11.560;2023-11-19T03:45:07;11.50;99.90
23497;DHT22;11925;48.122;11.560;2023-11-19T03:47:35;11.50;99.90
23497;DHT22;11925;48.122;11.560;2023-11-19T03:50:05;11.50;99.90
23497;DHT22;11925;48.122;11.560;2023-11-19T03:52:34;11.50;99.90
23497;DHT22;11925;48.122;11.560;2023-11-19T03:55:12;11.50;99.90
23497;DHT22;11925;48.122;11.560;2023-11-19T03:57:40;11.50;99.90
23497;DHT22;11925;48.122;11.560;2023-11-19T04:00:09;11.50;99.90
23497;DHT22;11925;48.122;11.560;2023-11-19T04:02:41;11.50;99.90
23497;DHT22;11925;48.122;11.560;2023-11-19T04:05:10;11.50;99.90
23497;DHT22;11925;48.122;11.560;2023-11-19T04:07:38;11.50;99.90
23497;DHT22;11925;48.122;11.560;2023-11-19T04:10:07;11.60;99.90
23497;DHT22;11925;48.122;11.560;2023-11-19T07:17:32;12.00;99.90
23497;DHT22;11925;48.122;11.560;2023-11-19T07:20:02;12.00;99.90
23497;DHT22;11925;48.122;11.560;2023-11-19T07:22:31;12.00;99.90
23497;DHT22;11925;48.122;11.560;2023-11-19T07:25:00;12.00;99.90
23497;DHT22;11925;48.122;11.560;2023-11-19T07:27:28;12.00;99.90
23497;DHT22;11925;48.122;11.560;2023-11-19T07:29:58;12.00;99.90
23497;DHT22;11925;48.122;11.560;2023-11-19T07:32:26;12.00;99.90
23497;DHT22;11925;48.122;11.560;2023-11-19T07:34:55;12.10;99.90
23497;DHT22;11925;48.122;11.560;2023-11-19T07:37:23;12.10;99.90
23497;DHT22;11925;48.122;11.560;2023-11-19T07:39:52;12.00;99.90
23497;DHT22;11925;48.122;11.560;2023-11-19T07:42:20;12.10;99.90
23497;DHT22;11925;48.122;11.560;2023-11-19T07:44:48;12.10;99.90
23497;DHT22;11925;48.122;11.560;2023-11-19T07:47:18;12.10;99.90
23497;DHT22;11925;48.122;11.560;2023-11-19T07:49:46;12.10;99.90
23497;DHT22;11925;48.122;11.560;2023-11-19T07:52:15;12.10;99.90
23497;DHT22;11925;48.122;11.560;2023-11-19T07:54:46;12.10;99.90
23497;DHT22;11925;48.122;11.560;2023-11-19T07:57:14;12.10;99.90
23497;DHT22;11925;48.122;11.560;2023-11-19T07:59:43;12.10;99.90
23497;DHT22;11925;48.122;11.560;2023-11-19T08:02:11;12.10;99.90
23497;DHT22;11925;48.122;11.560;2023-11-19T08:04:41;12.10;99.90
23497;DHT22;11925;48.122;11.560;2023-11-19T08:07:13;12.20;99.90
23497;DHT22;11925;48.122;11.560;2023-11-19T08:09:41;12.10;99.90
23497;DHT22;11925;48.122;11.560;2023-11-19T08:12:09;12.10;99.90
23497;DHT22;11925;48.122;11.560;2023-11-19T08:14:38;12.10;99.90
23497;DHT22;11925;48.122;11.560;2023-11-19T08:17:06;12.20;99.90
23497;DHT22;11925;48.122;11.560;2023-11-19T08:19:34;12.10;99.90
23497;DHT22;11925;48.122;11.560;2023-11-19T08:22:04;12.20;99.90
23497;DHT22;11925;48.122;11.560;2023-11-19T08:24:32;12.20;99.90
23497;DHT22;11925;48.122;11.560;2023-11-19T08:27:01;12.20;99.90
23497;DHT22;11925;48.122;11.560;2023-11-19T08:29:30;12.20;99.90
23497;DHT22;11925;48.122;11.560;2023-11-19T08:32:00;12.20;99.90
23497;DHT22;11925;48.122;11.560;2023-11-19T08:34:29;12.20;99.90
23497;DHT22;11925;48.122;11.560;2023-11-19T08:36:57;12.20;99.90
23497;DHT22;11925;48.122;11.560;2023-11-19T08:39:27;12.20;99.90
23497;DHT22;11925;48.122;11.560;2023-11-19T08:41:57;12.20;99.90
23497;DHT22;11925;48.122;11.560;2023-11-19T08:44:25;12.20;99.90
23497;DHT22;11925;48.122;11.560;2023-11-19T08:46:54;12.20;99.90
23497;DHT22;11925;48.122;11.560;2023-11-19T08:49:22;12.20;99.90
23497;DHT22;11925;48.122;11.560;2023-11-19T08:51:51;12.20;99.90
23497;DHT22;11925;48.122;11.560;2023-11-19T08:54:19;12.20;99.90
23497;DHT22;11925;48.122;11.560;2023-11-19T08:56:51;12.20;99.90
23497;DHT22;11925;48.122;11.560;2023-11-19T08:59:19;12.30;99.90
23497;DHT22;11925;48.122;11.560;2023-11-19T09:01:48;12.20;99.90
23497;DHT22;11925;48.122;11.560;2023-11-19T09:04:16;12.20;99.90
23497;DHT22;11925;48.122;11.560;2023-11-19T09:06:44;12.20;99.90
23497;DHT22;11925;48.122;11.560;2023-11-19T09:09:13;12.30;99.90
23497;DHT22;11925;48.122;11.560;2023-11-19T09:11:41;12.30;99.90
23497;DHT22;11925;48.122;11.560;2023-11-19T09:14:11;12.30;99.90
23497;DHT22;11925;48.122;11.560;2023-11-19T09:19:08;12.30;99.90
23497;DHT22;11925;48.122;11.560;2023-11-19T09:21:36;12.30;99.90
23497;DHT22;11925;48.122;11.560;2023-11-19T09:26:35;12.30;99.90
23497;DHT22;11925;48.122;11.560;2023-11-19T09:29:06;12.30;99.90
23497;DHT22;11925;48.122;11.560;2023-11-19T09:31:38;12.30;99.90
23497;DHT22;11925;48.122;11.560;2023-11-19T09:34:06;12.30;99.90
23497;DHT22;11925;48.122;11.560;2023-11-19T09:36:35;12.30;99.90
23497;DHT22;11925;48.122;11.560;2023-11-19T09:39:03;12.30;99.90
23497;DHT22;11925;48.122;11.560;2023-11-19T09:41:32;12.30;99.90
23497;DHT22;11925;48.122;11.560;2023-11-19T09:44:01;12.30;99.90
23497;DHT22;11925;48.122;11.560;2023-11-19T09:46:30;12.30;99.90
23497;DHT22;11925;48.122;11.560;2023-11-19T09:49:01;12.30;99.90
23497;DHT22;11925;48.122;11.560;2023-11-19T09:51:31;12.30;99.90
23497;DHT22;11925;48.122;11.560;2023-11-19T09:53:59;12.40;99.90
23497;DHT22;11925;48.122;11.560;2023-11-19T09:56:29;12.40;99.90
23497;DHT22;11925;48.122;11.560;2023-11-19T09:58:58;12.40;99.90
23497;DHT22;11925;48.122;11.560;2023-11-19T10:01:26;12.40;99.90
23497;DHT22;11925;48.122;11.560;2023-11-19T10:03:55;12.40;99.90
23497;DHT22;11925;48.122;11.560;2023-11-19T10:06:26;12.40;99.90
23497;DHT22;11925;48.122;11.560;2023-11-19T10:08:55;12.40;99.90
23497;DHT22;11925;48.122;11.560;2023-11-19T10:11:23;12.40;99.90
23497;DHT22;11925;48.122;11.560;2023-11-19T10:13:53;12.40;99.90
23497;DHT22;11925;48.122;11.560;2023-11-19T10:16:28;12.40;99.90
23497;DHT22;11925;48.122;11.560;2023-11-19T10:18:57;12.40;99.90
23497;DHT22;11925;48.122;11.560;2023-11-19T10:21:27;12.40;99.90
23497;DHT22;11925;48.122;11.560;2023-11-19T10:23:57;12.40;99.90
23497;DHT22;11925;48.122;11.560;2023-11-19T10:26:27;12.40;99.90
23497;DHT22;11925;48.122;11.560;2023-11-19T10:28:56;12.50;99.90
23497;DHT22;11925;48.122;11.560;2023-11-19T10:31:24;12.50;99.90
23497;DHT22;11925;48.122;11.560;2023-11-19T10:33:53;12.50;99.90
23497;DHT22;11925;48.122;11.560;2023-11-19T10:36:22;12.50;99.90
23497;DHT22;11925;48.122;11.560;2023-11-19T10:38:54;12.50;99.90
23497;DHT22;11925;48.122;11.560;2023-11-19T10:41:28;12.50;99.90
23497;DHT22;11925;48.122;11.560;2023-11-19T10:43:58;12.50;99.90
23497;DHT22;11925;48.122;11.560;2023-11-19T10:46:37;12.50;99.90
23497;DHT22;11925;48.122;11.560;2023-11-19T10:49:06;12.50;99.90
23497;DHT22;11925;48.122;11.560;2023-11-19T10:51:35;12.50;99.90
23497;DHT22;11925;48.122;11.560;2023-11-19T10:54:06;12.50;99.90
23497;DHT22;11925;48.122;11.560;2023-11-19T10:56:34;12.60;99.90
23497;DHT22;11925;48.122;11.560;2023-11-19T10:59:03;12.60;99.90
23497;DHT22;11925;48.122;11.560;2023-11-19T11:01:53;12.60;99.90
23497;DHT22;11925;48.122;11.560;2023-11-19T11:04:23;12.60;99.90
23497;DHT22;11925;48.122;11.560;2023-11-19T11:06:54;12.60;99.90
23497;DHT22;11925;48.122;11.560;2023-11-19T11:09:26;12.60;99.90
23497;DHT22;11925;48.122;11.560;2023-11-19T11:11:55;12.60;99.90
23497;DHT22;11925;48.122;11.560;2023-11-19T11:14:25;12.60;99.90
23497;DHT22;11925;48.122;11.560;2023-11-19T11:16:56;12.60;99.90
23497;DHT22;11925;48.122;11.560;2023-11-19T11:19:26;12.60;99.90
23497;DHT22;11925;48.122;11.560;2023-11-19T11:21:55;12.60;99.90
23497;DHT22;11925;48.122;11.560;2023-11-19T11:24:50;12.60;99.90
23497;DHT22;11925;48.122;11.560;2023-11-19T11:27:43;12.60;99.90
23497;DHT22;11925;48.122;11.560;2023-11-19T11:30:26;12.60;99.90
23497;DHT22;11925;48.122;11.560;2023-11-19T11:33:06;12.70;99.90
23497;DHT22;11925;48.122;11.560;2023-11-19T11:35:47;12.70;99.90
23497;DHT22;11925;48.122;11.560;2023-11-19T11:38:21;12.70;99.90
23497;DHT22;11925;48.122;11.560;2023-11-19T11:41:19;12.70;99.90
23497;DHT22;11925;48.122;11.560;2023-11-19T11:43:49;12.70;99.90
23497;DHT22;11925;48.122;11.560;2023-11-19T11:46:55;12.70;99.90
23497;DHT22;11925;48.122;11.560;2023-11-19T11:49:28;12.70;99.90
23497;DHT22;11925;48.122;11.560;2023-11-19T11:51:59;12.70;99.90
23497;DHT22;11925;48.122;11.560;2023-11-19T11:54:28;12.70;99.90
23497;DHT22;11925;48.122;11.560;2023-11-19T11:57:07;12.70;99.90
23497;DHT22;11925;48.122;11.560;2023-11-19T11:59:43;12.70;99.90
23497;DHT22;11925;48.122;11.560;2023-11-19T12:02:12;12.70;99.90
23497;DHT22;11925;48.122;11.560;2023-11-19T12:04:41;12.70;99.90
23497;DHT22;11925;48.122;11.560;2023-11-19T12:07:13;12.70;99.90
23497;DHT22;11925;48.122;11.560;2023-11-19T12:09:42;12.70;99.90
23497;DHT22;11925;48.122;11.560;2023-11-19T12:12:21;12.70;99.90
23497;DHT22;11925;48.122;11.560;2023-11-19T12:15:06;12.70;99.90
23497;DHT22;11925;48.122;11.560;2023-11-19T12:17:46;12.70;99.90
23497;DHT22;11925;48.122;11.560;2023-11-19T12:20:19;12.70;99.90
23497;DHT22;11925;48.122;11.560;2023-11-19T12:22:51;12.80;99.90
23497;DHT22;11925;48.122;11.560;2023-11-19T12:25:20;12.80;99.90
23497;DHT22;11925;48.122;11.560;2023-11-19T12:27:51;12.80;99.90
23497;DHT22;11925;48.122;11.560;2023-11-19T12:30:21;12.80;99.90
23497;DHT22;11925;48.122;11.560;2023-11-19T12:32:51;12.80;99.90
23497;DHT22;11925;48.122;11.560;2023-11-19T12:35:23;12.80;99.90
23497;DHT22;11925;48.122;11.560;2023-11-19T12:37:52;12.80;99.90
23497;DHT22;11925;48.122;11.560;2023-11-19T12:40:22;12.80;99.90
23497;DHT22;11925;48.122;11.560;2023-11-19T12:42:53;12.80;99.90
23497;DHT22;11925;48.122;11.560;2023-11-19T12:45:22;12.80;99.90
23497;DHT22;11925;48.122;11.560;2023-11-19T12:48:04;12.80;99.90
23497;DHT22;11925;48.122;11.560;2023-11-19T12:50:51;12.80;99.90
23497;DHT22;11925;48.122;11.560;2023-11-19T12:53:20;12.80;99.90
23497;DHT22;11925;48.122;11.560;2023-11-19T12:55:48;12.80;99.90
23497;DHT22;11925;48.122;11.560;2023-11-19T12:58:31;12.80;99.90
23497;DHT22;11925;48.122;11.560;2023-11-19T13:01:00;12.80;99.90
23497;DHT22;11925;48.122;11.560;2023-11-19T13:03:30;12.80;99.90
23497;DHT22;11925;48.122;11.560;2023-11-19T13:06:03;12.80;99.90
23497;DHT22;11925;48.122;11.560;2023-11-19T13:08:39;12.80;99.90
23497;DHT22;11925;48.122;11.560;2023-11-19T13:11:08;12.80;99.90
23497;DHT22;11925;48.122;11.560;2023-11-19T13:13:56;12.80;99.90
23497;DHT22;11925;48.122;11.560;2023-11-19T13:16:27;12.80;99.90
23497;DHT22;11925;48.122;11.560;2023-11-19T13:18:56;12.80;99.90
23497;DHT22;11925;48.122;11.560;2023-11-19T13:21:26;12.80;99.90
23497;DHT22;11925;48.122;11.560;2023-11-19T13:23:54;12.80;99.90
23497;DHT22;11925;48.122;11.560;2023-11-19T13:26:23;12.80;99.90
23497;DHT22;11925;48.122;11.560;2023-11-19T13:28:51;12.80;99.90
23497;DHT22;11925;48.122;11.560;2023-11-19T13:31:21;12.80;99.90
23497;DHT22;11925;48.122;11.560;2023-11-19T13:33:50;12.90;99.90
23497;DHT22;11925;48.122;11.560;2023-11-19T13:36:18;12.90;99.90
23497;DHT22;11925;48.122;11.560;2023-11-19T13:38:46;12.90;99.90
23497;DHT22;11925;48.122;11.560;2023-11-19T13:41:15;12.90;99.90
23497;DHT22;11925;48.122;11.560;2023-11-19T13:43:44;12.90;99.90
23497;DHT22;11925;48.122;11.560;2023-11-19T13:46:12;12.90;99.90
23497;DHT22;11925;48.122;11.560;2023-11-19T13:48:42;12.90;99.90
23497;DHT22;11925;48.122;11.560;2023-11-19T13:51:10;12.90;99.90
23497;DHT22;11925;48.122;11.560;2023-11-19T13:53:39;12.90;99.90
23497;DHT22;11925;48.122;11.560;2023-11-19T13:56:10;12.90;99.90
23497;DHT22;11925;48.122;11.560;2023-11-19T13:58:38;12.90;99.90
23497;DHT22;11925;48.122;11.560;2023-11-19T14:01:07;12.90;99.90
23497;DHT22;11925;48.122;11.560;2023-11-19T14:03:36;12.90;99.90
23497;DHT22;11925;48.122;11.560;2023-11-19T14:06:06;12.90;99.90
23497;DHT22;11925;48.122;11.560;2023-11-19T14:08:35;12.90;99.90
23497;DHT22;11925;48.122;11.560;2023-11-19T14:11:05;12.90;99.90
23497;DHT22;11925;48.122;11.560;2023-11-19T14:13:33;12.90;99.90
23497;DHT22;11925;48.122;11.560;2023-11-19T14:16:03;12.90;99.90
23497;DHT22;11925;48.122;11.560;2023-11-19T14:18:33;12.90;99.90
23497;DHT22;11925;48.122;11.560;2023-11-19T14:21:03;12.90;99.90
23497;DHT22;11925;48.122;11.560;2023-11-19T14:23:33;12.90;99.90
23497;DHT22;11925;48.122;11.560;2023-11-19T14:26:01;12.90;99.90
23497;DHT22;11925;48.122;11.560;2023-11-19T14:28:30;12.90;99.90
23497;DHT22;11925;48.122;11.560;2023-11-19T14:30:58;12.90;99.90
23497;DHT22;11925;48.122;11.560;2023-11-19T14:33:26;12.90;99.90
23497;DHT22;11925;48.122;11.560;2023-11-19T14:35:55;12.90;99.90
23497;DHT22;11925;48.122;11.560;2023-11-19T14:38:23;12.90;99.90
23497;DHT22;11925;48.122;11.560;2023-11-19T14:40:53;12.90;99.90
23497;DHT22;11925;48.122;11.560;2023-11-19T14:43:21;12.90;99.90
23497;DHT22;11925;48.122;11.560;2023-11-19T14:45:51;12.90;99.90
23497;DHT22;11925;48.122;11.560;2023-11-19T14:48:21;12.90;99.90
23497;DHT22;11925;48.122;11.560;2023-11-19T14:50:50;12.90;99.90
23497;DHT22;11925;48.122;11.560;2023-11-19T14:53:19;12.90;99.90
23497;DHT22;11925;48.122;11.560;2023-11-19T14:55:47;12.90;99.90
23497;DHT22;11925;48.122;11.560;2023-11-19T14:58:17;12.90;99.90
23497;DHT22;11925;48.122;11.560;2023-11-19T15:00:45;12.90;99.90
23497;DHT22;11925;48.122;11.560;2023-11-19T15:03:13;12.90;99.90
23497;DHT22;11925;48.122;11.560;2023-11-19T15:05:43;12.90;99.90
23497;DHT22;11925;48.122;11.560;2023-11-19T15:08:13;12.90;99.90
23497;DHT22;11925;48.122;11.560;2023-11-19T15:10:43;12.90;99.90
23497;DHT22;11925;48.122;11.560;2023-11-19T15:13:12;12.90;99.90
23497;DHT22;11925;48.122;11.560;2023-11-19T15:15:42;12.90;99.90
23497;DHT22;11925;48.122;11.560;2023-11-19T15:18:10;12.90;99.90
23497;DHT22;11925;48.122;11.560;2023-11-19T15:20:38;12.90;99.90
23497;DHT22;11925;48.122;11.560;2023-11-19T15:23:07;12.90;99.90
23497;DHT22;11925;48.122;11.560;2023-11-19T15:25:37;12.90;99.90
23497;DHT22;11925;48.122;11.560;2023-11-19T15:28:06;12.90;99.90
23497;DHT22;11925;48.122;11.560;2023-11-19T15:30:34;12.90;99.90
23497;DHT22;11925;48.122;11.560;2023-11-19T15:33:04;12.90;99.90
23497;DHT22;11925;48.122;11.560;2023-11-19T15:35:32;12.90;99.90
23497;DHT22;11925;48.122;11.560;2023-11-19T15:38:01;12.90;99.90
23497;DHT22;11925;48.122;11.560;2023-11-19T15:40:29;12.90;99.90
23497;DHT22;11925;48.122;11.560;2023-11-19T15:42:57;12.90;99.90
23497;DHT22;11925;48.122;11.560;2023-11-19T15:45:26;12.90;99.90
23497;DHT22;11925;48.122;11.560;2023-11-19T15:47:54;12.90;99.90
23497;DHT22;11925;48.122;11.560;2023-11-19T15:50:24;12.90;99.90
23497;DHT22;11925;48.122;11.560;2023-11-19T15:52:53;12.90;99.90
23497;DHT22;11925;48.122;11.560;2023-11-19T15:55:21;12.90;99.90
23497;DHT22;11925;48.122;11.560;2023-11-19T15:57:49;12.90;99.90
23497;DHT22;11925;48.122;11.560;2023-11-19T16:00:18;13.00;99.90
23497;DHT22;11925;48.122;11.560;2023-11-19T16:02:48;13.00;99.90
23497;DHT22;11925;48.122;11.560;2023-11-19T16:05:18;13.00;99.90
23497;DHT22;11925;48.122;11.560;2023-11-19T16:07:47;13.00;99.90
23497;DHT22;11925;48.122;11.560;2023-11-19T16:10:16;13.00;99.90
23497;DHT22;11925;48.122;11.560;2023-11-19T16:12:51;13.00;99.90
23497;DHT22;11925;48.122;11.560;2023-11-19T16:15:19;13.00;99.90
23497;DHT22;11925;48.122;11.560;2023-11-19T16:17:51;13.00;99.90
23497;DHT22;11925;48.122;11.560;2023-11-19T16:20:19;13.00;99.90
23497;DHT22;11925;48.122;11.560;2023-11-19T16:22:49;13.00;99.90
23497;DHT22;11925;48.122;11.560;2023-11-19T16:25:18;13.00;99.90
23497;DHT22;11925;48.122;11.560;2023-11-19T16:27:46;13.00;99.90
23497;DHT22;11925;48.122;11.560;2023-11-19T16:30:14;13.00;99.90
23497;DHT22;11925;48.122;11.560;2023-11-19T16:32:52;13.00;99.90
23497;DHT22;11925;48.122;11.560;2023-11-19T16:35:25;13.00;99.90
23497;DHT22;11925;48.122;11.560;2023-11-19T16:37:55;13.00;99.90
23497;DHT22;11925;48.122;11.560;2023-11-19T16:40:24;13.00;99.90
23497;DHT22;11925;48.122;11.560;2023-11-19T16:42:52;12.90;99.90
23497;DHT22;11925;48.122;11.560;2023-11-19T16:45:21;13.00;99.90
23497;DHT22;11925;48.122;11.560;2023-11-19T16:47:50;13.00;99.90
23497;DHT22;11925;48.122;11.560;2023-11-19T16:50:18;12.90;99.90
23497;DHT22;11925;48.122;11.560;2023-11-19T16:52:48;12.90;99.90
23497;DHT22;11925;48.122;11.560;2023-11-19T16:55:18;12.90;99.90
23497;DHT22;11925;48.122;11.560;2023-11-19T16:57:46;12.90;99.90
23497;DHT22;11925;48.122;11.560;2023-11-19T17:00:15;12.90;99.90
23497;DHT22;11925;48.122;11.560;2023-11-19T17:02:43;12.90;99.90
23497;DHT22;11925;48.122;11.560;2023-11-19T17:05:15;12.90;99.90
23497;DHT22;11925;48.122;11.560;2023-11-19T17:07:43;12.90;99.90
23497;DHT22;11925;48.122;11.560;2023-11-19T17:10:12;12.90;99.90
23497;DHT22;11925;48.122;11.560;2023-11-19T17:12:42;12.90;99.90
23497;DHT22;11925;48.122;11.560;2023-11-19T17:15:11;12.90;99.90
23497;DHT22;11925;48.122;11.560;2023-11-19T17:17:39;12.90;99.90
23497;DHT22;11925;48.122;11.560;2023-11-19T17:20:08;12.90;99.90
23497;DHT22;11925;48.122;11.560;2023-11-19T17:22:38;12.90;99.90
23497;DHT22;11925;48.122;11.560;2023-11-19T17:25:08;12.90;99.90
23497;DHT22;11925;48.122;11.560;2023-11-19T17:27:37;12.90;99.90
23497;DHT22;11925;48.122;11.560;2023-11-19T17:30:08;12.90;99.90
23497;DHT22;11925;48.122;11.560;2023-11-19T17:32:38;12.90;99.90
23497;DHT22;11925;48.122;11.560;2023-11-19T17:35:07;12.90;99.90
23497;DHT22;11925;48.122;11.560;2023-11-19T17:37:36;12.80;99.90
23497;DHT22;11925;48.122;11.560;2023-11-19T17:40:06;12.80;99.90
23497;DHT22;11925;48.122;11.560;2023-11-19T17:42:36;12.80;99.90
23497;DHT22;11925;48.122;11.560;2023-11-19T17:45:05;12.80;99.90
23497;DHT22;11925;48.122;11.560;2023-11-19T17:47:34;12.80;99.90
23497;DHT22;11925;48.122;11.560;2023-11-19T17:50:04;12.80;99.90
23497;DHT22;11925;48.122;11.560;2023-11-19T17:52:36;12.80;99.90
23497;DHT22;11925;48.122;11.560;2023-11-19T17:55:05;12.80;99.90
23497;DHT22;11925;48.122;11.560;2023-11-19T17:57:35;12.80;99.90
23497;DHT22;11925;48.122;11.560;2023-11-19T18:00:04;13.00;99.90
23497;DHT22;11925;48.122;11.560;2023-11-19T18:02:39;13.00;99.90
23497;DHT22;11925;48.122;11.560;2023-11-19T18:05:11;13.10;99.90
23497;DHT22;11925;48.122;11.560;2023-11-19T18:07:40;13.30;99.90
23497;DHT22;11925;48.122;11.560;2023-11-19T18:10:09;13.30;99.90
23497;DHT22;11925;48.122;11.560;2023-11-19T18:12:38;13.30;99.90
23497;DHT22;11925;48.122;11.560;2023-11-19T18:15:08;13.20;99.90
23497;DHT22;11925;48.122;11.560;2023-11-19T18:17:35;13.10;99.90
23497;DHT22;11925;48.122;11.560;2023-11-19T18:20:07;13.00;99.90
23497;DHT22;11925;48.122;11.560;2023-11-19T18:22:38;12.90;99.90
23497;DHT22;11925;48.122;11.560;2023-11-19T18:25:08;12.90;99.90
23497;DHT22;11925;48.122;11.560;2023-11-19T18:27:37;13.00;99.90
23497;DHT22;11925;48.122;11.560;2023-11-19T18:30:07;13.10;99.90
23497;DHT22;11925;48.122;11.560;2023-11-19T18:32:37;13.20;99.90
23497;DHT22;11925;48.122;11.560;2023-11-19T18:35:08;13.30;99.90
23497;DHT22;11925;48.122;11.560;2023-11-19T18:37:38;13.30;99.90
23497;DHT22;11925;48.122;11.560;2023-11-19T18:40:08;13.30;99.90
23497;DHT22;11925;48.122;11.560;2023-11-19T18:42:38;13.30;99.90
23497;DHT22;11925;48.122;11.560;2023-11-19T18:45:08;13.30;99.90
23497;DHT22;11925;48.122;11.560;2023-11-19T18:47:36;13.30;99.90
23497;DHT22;11925;48.122;11.560;2023-11-19T18:50:07;13.30;99.90
23497;DHT22;11925;48.122;11.560;2023-11-19T18:52:37;13.40;99.90
23497;DHT22;11925;48.122;11.560;2023-11-19T18:55:06;13.40;99.90
23497;DHT22;11925;48.122;11.560;2023-11-19T18:57:36;13.40;99.90
23497;DHT22;11925;48.122;11.560;2023-11-19T19:00:06;13.40;99.90
23497;DHT22;11925;48.122;11.560;2023-11-19T19:02:37;13.40;99.90
23497;DHT22;11925;48.122;11.560;2023-11-19T19:05:08;13.40;99.90
23497;DHT22;11925;48.122;11.560;2023-11-19T19:07:36;13.40;99.90
23497;DHT22;11925;48.122;11.560;2023-11-19T19:10:06;13.40;99.90
23497;DHT22;11925;48.122;11.560;2023-11-19T19:12:34;13.40;99.90
23497;DHT22;11925;48.122;11.560;2023-11-19T19:15:03;13.40;99.90
23497;DHT22;11925;48.122;11.560;2023-11-19T19:17:34;13.40;99.90
23497;DHT22;11925;48.122;11.560;2023-11-19T19:20:03;13.40;99.90
23497;DHT22;11925;48.122;11.560;2023-11-19T19:22:33;13.40;99.90
23497;DHT22;11925;48.122;11.560;2023-11-19T19:25:02;13.40;99.90
23497;DHT22;11925;48.122;11.560;2023-11-19T19:27:31;13.40;99.90
23497;DHT22;11925;48.122;11.560;2023-11-19T19:30:01;13.40;99.90
23497;DHT22;11925;48.122;11.560;2023-11-19T19:32:30;13.40;99.90
23497;DHT22;11925;48.122;11.560;2023-11-19T19:34:58;13.40;99.90
23497;DHT22;11925;48.122;11.560;2023-11-19T19:37:26;13.40;99.90
23497;DHT22;11925;48.122;11.560;2023-11-19T19:39:56;13.40;99.90
23497;DHT22;11925;48.122;11.560;2023-11-19T19:42:25;13.30;99.90
23497;DHT22;11925;48.122;11.560;2023-11-19T19:44:54;13.20;99.90
23497;DHT22;11925;48.122;11.560;2023-11-19T19:47:22;13.10;99.90
23497;DHT22;11925;48.122;11.560;2023-11-19T19:49:51;13.10;99.90
23497;DHT22;11925;48.122;11.560;2023-11-19T19:52:19;13.20;99.90
23497;DHT22;11925;48.122;11.560;2023-11-19T19:55:09;13.10;99.90
23497;DHT22;11925;48.122;11.560;2023-11-19T19:57:39;13.00;99.90
23497;DHT22;11925;48.122;11.560;2023-11-19T20:00:08;13.00;99.90
23497;DHT22;11925;48.122;11.560;2023-11-19T20:02:43;13.00;99.90
23497;DHT22;11925;48.122;11.560;2023-11-19T20:05:12;13.00;99.90
23497;DHT22;11925;48.122;11.560;2023-11-19T20:07:43;13.00;99.90
23497;DHT22;11925;48.122;11.560;2023-11-19T20:10:13;13.00;99.90
23497;DHT22;11925;48.122;11.560;2023-11-19T20:12:42;13.30;99.90
23497;DHT22;11925;48.122;11.560;2023-11-19T20:15:11;13.00;99.90
23497;DHT22;11925;48.122;11.560;2023-11-19T20:17:41;12.90;99.90
23497;DHT22;11925;48.122;11.560;2023-11-19T20:20:11;12.90;99.90
23497;DHT22;11925;48.122;11.560;2023-11-19T20:22:40;12.90;99.90
23497;DHT22;11925;48.122;11.560;2023-11-19T20:25:09;12.90;99.90
23497;DHT22;11925;48.122;11.560;2023-11-19T20:27:39;12.90;99.90
23497;DHT22;11925;48.122;11.560;2023-11-19T20:30:09;12.90;99.90
23497;DHT22;11925;48.122;11.560;2023-11-19T20:32:38;12.90;99.90
23497;DHT22;11925;48.122;11.560;2023-11-19T20:35:10;12.90;99.90
23497;DHT22;11925;48.122;11.560;2023-11-19T20:37:40;12.90;99.90
23497;DHT22;11925;48.122;11.560;2023-11-19T20:40:09;12.90;99.90
23497;DHT22;11925;48.122;11.560;2023-11-19T20:42:40;12.90;99.90
23497;DHT22;11925;48.122;11.560;2023-11-19T20:45:09;12.90;99.90
23497;DHT22;11925;48.122;11.560;2023-11-19T20:47:38;12.90;99.90
23497;DHT22;11925;48.122;11.560;2023-11-19T20:50:07;12.90;99.90
23497;DHT22;11925;48.122;11.560;2023-11-19T20:52:36;12.90;99.90
23497;DHT22;11925;48.122;11.560;2023-11-19T20:55:06;12.90;99.90
23497;DHT22;11925;48.122;11.560;2023-11-19T20:57:36;13.00;99.90
23497;DHT22;11925;48.122;11.560;2023-11-19T21:00:07;12.90;99.90
23497;DHT22;11925;48.122;11.560;2023-11-19T21:02:40;13.00;99.90
23497;DHT22;11925;48.122;11.560;2023-11-19T21:05:09;13.00;99.90
23497;DHT22;11925;48.122;11.560;2023-11-19T21:07:37;13.00;99.90
23497;DHT22;11925;48.122;11.560;2023-11-19T21:10:07;13.00;99.90
23497;DHT22;11925;48.122;11.560;2023-11-19T21:12:39;13.00;99.90
23497;DHT22;11925;48.122;11.560;2023-11-19T21:30:09;12.90;99.90
23497;DHT22;11925;48.122;11.560;2023-11-19T21:32:38;12.90;99.90
23497;DHT22;11925;48.122;11.560;2023-11-19T21:35:07;12.90;99.90
23497;DHT22;11925;48.122;11.560;2023-11-19T21:37:35;12.80;99.90
23497;DHT22;11925;48.122;11.560;2023-11-19T21:40:05;12.90;99.90
23497;DHT22;11925;48.122;11.560;2023-11-19T21:42:34;12.80;99.90